Time,TemperatureF,DewpointF,PressureIn,WindDirection,WindDirectionDegrees,WindSpeedMPH,WindSpeedGustMPH,Humidity,HourlyPrecipIn,Conditions,Clouds,dailyrainin,SoftwareType,DateUTC
2013-07-13 00:12:00,60.6,59.0,30.10,SE,134,0.0,0.0,95,0.00,,,0.00,weatherlink.com 1.10,2013-07-13 04:12:00,
2013-07-13 00:27:00,60.1,59.0,30.10,SE,134,0.0,0.0,95,0.00,,,0.00,weatherlink.com 1.10,2013-07-13 04:27:00,
2013-07-13 00:42:00,60.0,59.0,30.10,SE,134,0.0,0.0,95,0.00,,,0.00,weatherlink.com 1.10,2013-07-13 04:42:00,
2013-07-13 00:57:00,59.6,58.0,30.10,SE,134,0.0,0.0,95,0.00,,,0.00,weatherlink.com 1.10,2013-07-13 04:57:00,
2013-07-13 01:13:00,59.3,58.0,30.11,SE,134,0.0,0.0,96,0.00,,,0.00,weatherlink.com 1.10,2013-07-13 05:13:00,
2013-07-13 01:28:00,59.2,58.0,30.10,SE,134,0.0,0.0,96,0.00,,,0.00,weatherlink.com 1.10,2013-07-13 05:28:00,
2013-07-13 01:43:00,59.0,58.0,30.10,SE,134,0.0,0.0,96,0.00,,,0.00,weatherlink.com 1.10,2013-07-13 05:43:00,
2013-07-13 01:58:00,58.8,58.0,30.10,SE,134,0.0,0.0,96,0.00,,,0.00,weatherlink.com 1.10,2013-07-13 05:58:00,
2013-07-13 02:13:00,58.5,58.0,30.10,SE,134,0.0,0.0,97,0.00,,,0.00,weatherlink.com 1.10,2013-07-13 06:13:00,
2013-07-13 02:28:00,58.1,57.0,30.10,SE,134,0.0,0.0,97,0.00,,,0.00,weatherlink.com 1.10,2013-07-13 06:28:00,
2013-07-13 02:43:00,58.0,57.0,30.10,SE,134,0.0,0.0,97,0.00,,,0.00,weatherlink.com 1.10,2013-07-13 06:43:00,
2013-07-13 02:58:00,58.1,57.0,30.10,SE,134,0.0,0.0,97,0.00,,,0.00,weatherlink.com 1.10,2013-07-13 06:58:00,
2013-07-13 03:13:00,57.9,57.0,30.10,SE,134,0.0,0.0,98,0.00,,,0.00,weatherlink.com 1.10,2013-07-13 07:13:00,
2013-07-13 03:28:00,57.8,57.0,30.11,SE,134,0.0,0.0,98,0.00,,,0.00,weatherlink.com 1.10,2013-07-13 07:28:00,
2013-07-13 03:43:00,57.8,57.0,30.11,SE,134,0.0,0.0,97,0.00,,,0.00,weatherlink.com 1.10,2013-07-13 07:43:00,
2013-07-13 03:58:00,57.4,57.0,30.12,SE,134,0.0,0.0,97,0.00,,,0.00,weatherlink.com 1.10,2013-07-13 07:58:00,
2013-07-13 04:14:00,57.1,57.0,30.11,SE,134,0.0,0.0,98,0.00,,,0.00,weatherlink.com 1.10,2013-07-13 08:14:00,
2013-07-13 04:28:00,56.7,56.0,30.12,SE,134,0.0,0.0,98,0.00,,,0.00,weatherlink.com 1.10,2013-07-13 08:28:00,
2013-07-13 04:43:00,56.5,56.0,30.12,SE,134,0.0,0.0,98,0.00,,,0.00,weatherlink.com 1.10,2013-07-13 08:43:00,
2013-07-13 04:58:00,56.1,56.0,30.12,SE,134,0.0,0.0,98,0.00,,,0.00,weatherlink.com 1.10,2013-07-13 08:58:00,
2013-07-13 05:13:00,56.0,56.0,30.12,SE,134,0.0,0.0,98,0.00,,,0.00,weatherlink.com 1.10,2013-07-13 09:13:00,
2013-07-13 05:28:00,55.7,55.0,30.13,SE,134,0.0,0.0,98,0.00,,,0.00,weatherlink.com 1.10,2013-07-13 09:28:00,
2013-07-13 05:43:00,55.4,55.0,30.13,SE,134,0.0,0.0,98,0.00,,,0.00,weatherlink.com 1.10,2013-07-13 09:43:00,
2013-07-13 05:58:00,55.3,55.0,30.13,SE,134,0.0,0.0,98,0.00,,,0.00,weatherlink.com 1.10,2013-07-13 09:58:00,
2013-07-13 06:13:00,55.5,55.0,30.14,SE,134,0.0,0.0,98,0.00,,,0.00,weatherlink.com 1.10,2013-07-13 10:13:00,
2013-07-13 06:28:00,55.3,55.0,30.14,SE,134,0.0,0.0,98,0.00,,,0.00,weatherlink.com 1.10,2013-07-13 10:28:00,
2013-07-13 06:43:00,55.8,56.0,30.15,SE,134,0.0,0.0,99,0.00,,,0.00,weatherlink.com 1.10,2013-07-13 10:43:00,
2013-07-13 06:58:00,56.3,56.0,30.15,SE,134,0.0,0.0,98,0.00,,,0.00,weatherlink.com 1.10,2013-07-13 10:58:00,
2013-07-13 07:13:00,57.9,57.0,30.14,SE,134,0.0,0.0,98,0.00,,,0.00,weatherlink.com 1.10,2013-07-13 11:13:00,
2013-07-13 07:28:00,59.2,59.0,30.14,SE,134,0.0,0.0,99,0.00,,,0.00,weatherlink.com 1.10,2013-07-13 11:28:00,
2013-07-13 07:43:00,60.4,60.0,30.14,SE,134,0.0,0.0,98,0.00,,,0.00,weatherlink.com 1.10,2013-07-13 11:43:00,
2013-07-13 07:58:00,62.2,62.0,30.14,SE,134,0.0,0.0,98,0.00,,,0.00,weatherlink.com 1.10,2013-07-13 11:58:00,
2013-07-13 08:13:00,64.3,62.0,30.14,SE,134,0.0,1.0,93,0.00,,,0.00,weatherlink.com 1.10,2013-07-13 12:13:00,
2013-07-13 08:28:00,66.0,64.0,30.15,SE,134,0.0,0.0,92,0.00,,,0.00,weatherlink.com 1.10,2013-07-13 12:28:00,
2013-07-13 08:43:00,68.4,64.0,30.16,ESE,117,1.0,1.0,87,0.00,,,0.00,weatherlink.com 1.10,2013-07-13 12:43:00,
2013-07-13 08:59:00,70.1,65.0,30.15,WSW,242,0.0,1.0,85,0.00,,,0.00,weatherlink.com 1.10,2013-07-13 12:59:00,
2013-07-13 09:14:00,71.3,66.0,30.15,ESE,117,0.0,1.0,82,0.00,,,0.00,weatherlink.com 1.10,2013-07-13 13:14:00,
2013-07-13 09:29:00,72.2,65.0,30.15,ESE,108,0.0,2.0,79,0.00,,,0.00,weatherlink.com 1.10,2013-07-13 13:29:00,
2013-07-13 09:44:00,74.0,65.0,30.15,ESE,118,0.0,2.0,73,0.00,,,0.00,weatherlink.com 1.10,2013-07-13 13:44:00,
2013-07-13 09:59:00,75.5,65.0,30.15,SE,146,1.0,2.0,70,0.00,,,0.00,weatherlink.com 1.10,2013-07-13 13:59:00,
2013-07-13 10:14:00,76.6,64.0,30.16,ESE,115,1.0,4.0,65,0.00,,,0.00,weatherlink.com 1.10,2013-07-13 14:14:00,
2013-07-13 10:29:00,77.1,64.0,30.16,SE,125,1.0,2.0,64,0.00,,,0.00,weatherlink.com 1.10,2013-07-13 14:29:00,
2013-07-13 10:44:00,77.9,63.0,30.16,SSW,210,0.0,3.0,61,0.00,,,0.00,weatherlink.com 1.10,2013-07-13 14:44:00,
2013-07-13 10:59:00,78.7,62.0,30.16,SE,143,0.0,4.0,57,0.00,,,0.00,weatherlink.com 1.10,2013-07-13 14:59:00,
2013-07-13 11:14:00,79.4,63.0,30.15,WSW,243,1.0,3.0,58,0.00,,,0.00,weatherlink.com 1.10,2013-07-13 15:14:00,
2013-07-13 11:29:00,79.3,62.0,30.15,East,95,1.0,5.0,56,0.00,,,0.00,weatherlink.com 1.10,2013-07-13 15:29:00,
2013-07-13 11:44:00,79.4,63.0,30.15,ESE,109,2.0,4.0,57,0.00,,,0.00,weatherlink.com 1.10,2013-07-13 15:44:00,
2013-07-13 11:59:00,79.9,62.0,30.15,ESE,108,1.0,8.0,55,0.00,,,0.00,weatherlink.com 1.10,2013-07-13 15:59:00,
2013-07-13 12:14:00,79.9,62.0,30.15,ENE,63,1.0,9.0,54,0.00,,,0.00,weatherlink.com 1.10,2013-07-13 16:14:00,
2013-07-13 12:29:00,81.0,62.0,30.14,SW,221,0.0,4.0,53,0.00,,,0.00,weatherlink.com 1.10,2013-07-13 16:29:00,
2013-07-13 12:44:00,80.7,60.0,30.15,SE,124,8.0,8.0,50,0.00,,,0.00,weatherlink.com 1.10,2013-07-13 16:44:00,
2013-07-13 12:59:00,82.1,61.0,30.14,ENE,78,0.0,4.0,49,0.00,,,0.00,weatherlink.com 1.10,2013-07-13 16:59:00,
2013-07-13 13:14:00,81.9,60.0,30.14,ESE,120,1.0,4.0,47,0.00,,,0.00,weatherlink.com 1.10,2013-07-13 17:14:00,
2013-07-13 13:29:00,82.5,61.0,30.14,East,100,1.0,3.0,48,0.00,,,0.00,weatherlink.com 1.10,2013-07-13 17:29:00,
2013-07-13 13:44:00,82.9,60.0,30.15,East,94,1.0,2.0,46,0.00,,,0.00,weatherlink.com 1.10,2013-07-13 17:44:00,
2013-07-13 13:59:00,83.4,61.0,30.14,WSW,253,0.0,3.0,47,0.00,,,0.00,weatherlink.com 1.10,2013-07-13 17:59:00,
2013-07-13 14:15:00,83.9,58.0,30.13,SE,139,3.0,7.0,42,0.00,,,0.00,weatherlink.com 1.10,2013-07-13 18:15:00,
2013-07-13 14:30:00,84.2,61.0,30.13,East,98,1.0,2.0,45,0.00,,,0.00,weatherlink.com 1.10,2013-07-13 18:30:00,
2013-07-13 14:45:00,84.2,60.0,30.13,SE,134,0.0,7.0,44,0.00,,,0.00,weatherlink.com 1.10,2013-07-13 18:45:00,
2013-07-13 15:00:00,83.9,60.0,30.13,South,183,3.0,6.0,44,0.00,,,0.00,weatherlink.com 1.10,2013-07-13 19:00:00,
2013-07-13 15:15:00,84.2,59.0,30.13,NE,54,0.0,5.0,43,0.00,,,0.00,weatherlink.com 1.10,2013-07-13 19:15:00,
2013-07-13 15:30:00,84.7,60.0,30.12,ENE,69,0.0,2.0,43,0.00,,,0.00,weatherlink.com 1.10,2013-07-13 19:30:00,
2013-07-13 15:45:00,84.3,61.0,30.12,East,79,1.0,6.0,46,0.00,,,0.00,weatherlink.com 1.10,2013-07-13 19:45:00,
2013-07-13 16:00:00,84.9,61.0,30.12,East,94,2.0,5.0,45,0.00,,,0.00,weatherlink.com 1.10,2013-07-13 20:00:00,
2013-07-13 16:15:00,84.9,61.0,30.12,East,82,1.0,8.0,45,0.00,,,0.00,weatherlink.com 1.10,2013-07-13 20:15:00,
2013-07-13 16:30:00,84.9,59.0,30.12,East,101,3.0,5.0,42,0.00,,,0.00,weatherlink.com 1.10,2013-07-13 20:30:00,
2013-07-13 16:45:00,85.2,59.0,30.11,East,84,1.0,5.0,41,0.00,,,0.00,weatherlink.com 1.10,2013-07-13 20:45:00,
2013-07-13 17:00:00,85.7,61.0,30.11,ESE,122,1.0,6.0,44,0.00,,,0.00,weatherlink.com 1.10,2013-07-13 21:00:00,
2013-07-13 17:15:00,85.4,62.0,30.12,NNE,26,1.0,5.0,45,0.00,,,0.00,weatherlink.com 1.10,2013-07-13 21:15:00,
2013-07-13 17:30:00,86.0,61.0,30.11,NNW,348,0.0,4.0,43,0.00,,,0.00,weatherlink.com 1.10,2013-07-13 21:30:00,
2013-07-13 17:45:00,86.0,60.0,30.11,ENE,77,2.0,5.0,42,0.00,,,0.00,weatherlink.com 1.10,2013-07-13 21:45:00,
2013-07-13 18:00:00,85.4,61.0,30.11,SE,141,1.0,7.0,44,0.00,,,0.00,weatherlink.com 1.10,2013-07-13 22:00:00,
2013-07-13 18:15:00,85.3,62.0,30.11,SE,124,1.0,4.0,45,0.00,,,0.00,weatherlink.com 1.10,2013-07-13 22:15:00,
2013-07-13 18:30:00,85.2,62.0,30.10,WSW,238,1.0,3.0,46,0.00,,,0.00,weatherlink.com 1.10,2013-07-13 22:30:00,
2013-07-13 18:45:00,84.8,61.0,30.10,SE,125,1.0,3.0,45,0.00,,,0.00,weatherlink.com 1.10,2013-07-13 22:45:00,
2013-07-13 19:00:00,84.6,62.0,30.10,SE,139,1.0,5.0,47,0.00,,,0.00,weatherlink.com 1.10,2013-07-13 23:00:00,
2013-07-13 19:15:00,84.3,61.0,30.10,SE,135,0.0,3.0,46,0.00,,,0.00,weatherlink.com 1.10,2013-07-13 23:15:00,
2013-07-13 19:30:00,84.4,61.0,30.11,SE,138,0.0,4.0,46,0.00,,,0.00,weatherlink.com 1.10,2013-07-13 23:30:00,
2013-07-13 19:45:00,84.1,61.0,30.11,East,94,1.0,2.0,45,0.00,,,0.00,weatherlink.com 1.10,2013-07-13 23:45:00,
2013-07-13 20:00:00,83.6,61.0,30.11,SE,124,0.0,4.0,46,0.00,,,0.00,weatherlink.com 1.10,2013-07-14 00:00:00,
2013-07-13 20:15:00,82.3,61.0,30.11,ESE,109,0.0,1.0,48,0.00,,,0.00,weatherlink.com 1.10,2013-07-14 00:15:00,
2013-07-13 20:30:00,80.7,61.0,30.11,SE,131,0.0,2.0,52,0.00,,,0.00,weatherlink.com 1.10,2013-07-14 00:30:00,
2013-07-13 20:45:00,79.3,62.0,30.11,ESE,123,0.0,3.0,55,0.00,,,0.00,weatherlink.com 1.10,2013-07-14 00:45:00,
2013-07-13 21:00:00,77.6,62.0,30.11,ESE,123,0.0,0.0,59,0.00,,,0.00,weatherlink.com 1.10,2013-07-14 01:00:00,
2013-07-13 21:15:00,75.9,62.0,30.11,ESE,122,0.0,0.0,63,0.00,,,0.00,weatherlink.com 1.10,2013-07-14 01:15:00,
2013-07-13 21:30:00,74.2,63.0,30.12,ESE,123,0.0,0.0,67,0.00,,,0.00,weatherlink.com 1.10,2013-07-14 01:30:00,
2013-07-13 21:45:00,72.6,63.0,30.12,ESE,122,0.0,0.0,71,0.00,,,0.00,weatherlink.com 1.10,2013-07-14 01:45:00,
2013-07-13 22:00:00,71.1,62.0,30.13,ESE,123,0.0,0.0,73,0.00,,,0.00,weatherlink.com 1.10,2013-07-14 02:00:00,
2013-07-13 22:15:00,70.0,63.0,30.13,ESE,122,0.0,0.0,77,0.00,,,0.00,weatherlink.com 1.10,2013-07-14 02:15:00,
2013-07-13 22:30:00,68.8,62.0,30.14,ESE,122,0.0,0.0,78,0.00,,,0.00,weatherlink.com 1.10,2013-07-14 02:30:00,
2013-07-13 22:45:00,67.8,62.0,30.14,ESE,122,0.0,0.0,81,0.00,,,0.00,weatherlink.com 1.10,2013-07-14 02:45:00,
2013-07-13 23:00:00,67.3,62.0,30.15,ESE,123,0.0,0.0,83,0.00,,,0.00,weatherlink.com 1.10,2013-07-14 03:00:00,
2013-07-13 23:15:00,66.6,62.0,30.15,ESE,122,0.0,0.0,85,0.00,,,0.00,weatherlink.com 1.10,2013-07-14 03:15:00,
2013-07-13 23:30:00,65.7,62.0,30.15,ESE,122,0.0,0.0,86,0.00,,,0.00,weatherlink.com 1.10,2013-07-14 03:30:00,
2013-07-13 23:45:00,65.6,61.0,30.15,ESE,122,0.0,0.0,86,0.00,,,0.00,weatherlink.com 1.10,2013-07-14 03:45:00,